Time;durP1;ratioP1;P1;durP2;ratioP2;P2;SDS_P1;SDS_P2;PMS_P1;PMS_P2;Temp;Humidity;BMP_temperature;BMP_pressure;BME280_temperature;BME280_humidity;BME280_pressure;Samples;Min_cycle;Max_cycle;Signal;HPM_P1;HPM_P2
2023/01/04 00:01:25;;;;;;;9.67;5.60;;;5.70;99.90;;;;;;5009099;28;20212;-73
2023/01/04 00:03:51;;;;;;;8.53;5.30;;;5.70;99.90;;;;;;5004686;28;20235;-73
2023/01/04 00:06:18;;;;;;;16.27;5.80;;;5.70;99.90;;;;;;5017776;28;20180;-73
2023/01/04 00:08:43;;;;;;;8.17;6.23;;;5.70;99.90;;;;;;5008819;28;20176;-71
2023/01/04 00:11:22;;;;;;;10.80;6.20;;;5.60;99.90;;;;;;5010137;28;20235;-75
2023/01/04 00:13:50;;;;;;;8.13;6.20;;;5.70;99.90;;;;;;5006277;28;20213;-71
2023/01/04 00:16:22;;;;;;;8.47;5.93;;;5.70;99.90;;;;;;5002856;28;20212;-74
2023/01/04 00:18:49;;;;;;;9.30;5.87;;;5.70;99.90;;;;;;5005509;28;20267;-74
2023/01/04 00:21:17;;;;;;;10.77;5.43;;;5.70;99.90;;;;;;5007821;28;20270;-73
2023/01/04 00:23:45;;;;;;;7.73;5.33;;;5.60;99.90;;;;;;5000648;28;20734;-73
2023/01/04 00:26:20;;;;;;;8.23;5.50;;;5.60;99.90;;;;;;5015155;28;20240;-72
2023/01/04 00:28:46;;;;;;;8.90;5.60;;;5.60;99.90;;;;;;5007563;28;20259;-73
2023/01/04 00:31:14;;;;;;;8.57;5.47;;;5.60;99.90;;;;;;5012021;28;20212;-72
2023/01/04 00:33:39;;;;;;;9.20;5.50;;;5.60;99.90;;;;;;5009220;28;20346;-75
2023/01/04 00:36:11;;;;;;;9.50;5.57;;;5.60;99.90;;;;;;5009589;28;20216;-72
2023/01/04 00:38:37;;;;;;;8.63;5.33;;;5.50;99.90;;;;;;5014676;28;20214;-75
2023/01/04 00:41:04;;;;;;;8.17;6.40;;;5.50;99.90;;;;;;5005786;28;20227;-74
2023/01/04 00:43:30;;;;;;;8.10;5.70;;;5.50;99.90;;;;;;5005673;28;20224;-74
2023/01/04 00:45:57;;;;;;;8.53;6.30;;;5.50;99.90;;;;;;5014624;28;20292;-74
2023/01/04 00:48:22;;;;;;;7.83;5.77;;;5.50;99.90;;;;;;5020702;28;20255;-74
2023/01/04 00:50:49;;;;;;;12.17;6.20;;;5.50;99.90;;;;;;5003271;28;20601;-73
2023/01/04 00:53:15;;;;;;;8.80;6.07;;;5.60;99.90;;;;;;5021126;28;20294;-74
2023/01/04 00:55:42;;;;;;;9.03;5.90;;;5.50;99.90;;;;;;5011054;28;20212;-74
2023/01/04 00:58:07;;;;;;;9.43;5.97;;;5.50;99.90;;;;;;5018112;28;20694;-71
2023/01/04 01:00:34;;;;;;;8.70;5.77;;;5.50;99.90;;;;;;5019522;28;20294;-74
2023/01/04 01:03:00;;;;;;;8.93;6.07;;;5.50;99.90;;;;;;5022041;28;20202;-74
2023/01/04 01:05:25;;;;;;;10.10;5.87;;;5.50;99.90;;;;;;5021353;28;20597;-74
2023/01/04 01:07:51;;;;;;;9.47;6.17;;;5.50;99.90;;;;;;5012801;28;20572;-73
2023/01/04 01:10:17;;;;;;;10.23;6.20;;;5.60;99.90;;;;;;5012099;28;20204;-74
2023/01/04 01:12:42;;;;;;;8.53;5.70;;;5.50;99.90;;;;;;5012020;28;20224;-74
2023/01/04 01:15:09;;;;;;;7.93;5.80;;;5.60;99.90;;;;;;5014665;28;20279;-74
2023/01/04 01:17:35;;;;;;;10.37;5.80;;;5.60;99.90;;;;;;5005362;28;20288;-74
2023/01/04 01:20:03;;;;;;;7.43;5.27;;;5.60;99.90;;;;;;5022310;28;20208;-73
2023/01/04 01:22:29;;;;;;;8.37;5.57;;;5.60;99.90;;;;;;5013218;28;20205;-74
2023/01/04 01:24:55;;;;;;;9.03;5.60;;;5.60;99.90;;;;;;5010529;28;20217;-74
2023/01/04 01:27:20;;;;;;;7.23;4.67;;;5.60;99.90;;;;;;5019057;28;20183;-74
2023/01/04 01:29:46;;;;;;;7.70;4.93;;;5.60;99.90;;;;;;5008776;28;20181;-75
2023/01/04 01:32:12;;;;;;;9.17;5.43;;;5.60;99.90;;;;;;5016608;28;20224;-73
2023/01/04 01:34:37;;;;;;;7.50;5.67;;;5.60;99.90;;;;;;5013767;28;20589;-73
2023/01/04 01:37:03;;;;;;;7.73;5.00;;;5.60;99.90;;;;;;5006482;28;20220;-74
2023/01/04 01:39:29;;;;;;;9.67;5.50;;;5.50;99.90;;;;;;5018539;28;20316;-73
2023/01/04 01:41:54;;;;;;;7.83;5.10;;;5.60;99.90;;;;;;5010107;28;20181;-72
2023/01/04 01:44:42;;;;;;;7.63;5.10;;;5.50;99.90;;;;;;5001376;28;20209;-72
2023/01/04 01:47:25;;;;;;;5.23;4.63;;;5.60;99.90;;;;;;5016887;28;20211;-72
2023/01/04 01:49:53;;;;;;;8.97;5.27;;;5.60;99.90;;;;;;5004390;28;20255;-69
2023/01/04 01:52:34;;;;;;;5.53;4.73;;;5.60;99.90;;;;;;5014161;28;20583;-70
2023/01/04 01:55:03;;;;;;;8.00;4.67;;;5.60;99.90;;;;;;5010225;28;20260;-72
2023/01/04 01:57:33;;;;;;;7.87;4.87;;;5.60;99.90;;;;;;5004162;28;20263;-70
2023/01/04 02:00:06;;;;;;;7.23;4.90;;;5.60;99.90;;;;;;5014496;28;20169;-69
2023/01/04 02:02:32;;;;;;;8.43;4.53;;;5.60;99.90;;;;;;5006750;28;20205;-71
2023/01/04 02:05:00;;;;;;;5.77;4.57;;;5.60;99.90;;;;;;5006092;28;20228;-70
2023/01/04 02:07:27;;;;;;;6.03;4.50;;;5.60;99.90;;;;;;5016882;28;20289;-71
2023/01/04 02:09:54;;;;;;;9.37;4.70;;;5.50;99.90;;;;;;5004919;28;20205;-71
2023/01/04 02:12:19;;;;;;;7.60;4.67;;;5.60;99.90;;;;;;5008083;28;20178;-71
2023/01/04 02:14:48;;;;;;;7.33;4.50;;;5.50;99.90;;;;;;5011692;28;20177;-71
2023/01/04 02:17:43;;;;;;;6.30;4.70;;;5.50;99.90;;;;;;5007557;28;20687;-71
2023/01/04 02:20:48;;;;;;;9.40;5.33;;;5.50;99.90;;;;;;5016774;28;20220;-71
2023/01/04 02:23:35;;;;;;;6.70;4.50;;;5.40;99.90;;;;;;5012958;28;20219;-70
2023/01/04 02:26:33;;;;;;;8.03;4.77;;;5.40;99.90;;;;;;5023675;28;20210;-71
2023/01/04 02:29:21;;;;;;;5.57;4.43;;;5.30;99.90;;;;;;5016745;28;20213;-70
2023/01/04 02:31:56;;;;;;;6.93;4.77;;;5.30;99.90;;;;;;5005085;28;20197;-71
2023/01/04 02:35:00;;;;;;;5.33;4.20;;;5.30;99.90;;;;;;5017110;28;20230;-71
2023/01/04 02:37:44;;;;;;;5.87;4.57;;;5.30;99.90;;;;;;5005343;28;20212;-71
2023/01/04 02:40:25;;;;;;;7.73;4.40;;;5.30;99.90;;;;;;5010433;28;20296;-71
2023/01/04 02:46:06;;;;;;;6.03;4.30;;;5.30;99.90;;;;;;5009749;28;20246;-70
2023/01/04 02:51:35;;;;;;;6.30;4.87;;;5.30;99.90;;;;;;5001033;28;20256;-71
2023/01/04 02:54:09;;;;;;;7.03;4.57;;;5.20;99.90;;;;;;5013910;28;20290;-71
2023/01/04 02:56:38;;;;;;;7.47;4.63;;;5.20;99.90;;;;;;5006181;28;20219;-71
2023/01/04 02:59:20;;;;;;;6.30;4.33;;;5.20;99.90;;;;;;5002100;28;20221;-71
2023/01/04 03:08:20;;;;;;;10.13;4.47;;;5.10;99.90;;;;;;5014667;28;20343;-71
2023/01/04 03:11:01;;;;;;;6.93;4.83;;;5.10;99.90;;;;;;5005346;28;20730;-71
2023/01/04 03:13:41;;;;;;;8.37;4.53;;;5.20;99.90;;;;;;5013719;28;20203;-71
2023/01/04 03:16:18;;;;;;;8.00;4.87;;;5.20;99.90;;;;;;5011983;28;20270;-72
2023/01/04 03:18:49;;;;;;;7.07;4.53;;;5.20;99.90;;;;;;5014533;28;20216;-72
2023/01/04 03:21:16;;;;;;;7.63;4.93;;;5.10;99.90;;;;;;5013576;28;20175;-71
2023/01/04 03:35:49;;;;;;;9.70;5.70;;;5.20;99.90;;;;;;5049851;28;20272;-72
2023/01/04 03:50:30;;;;;;;7.93;5.30;;;5.10;99.90;;;;;;5042439;28;20304;-72
2023/01/04 03:52:58;;;;;;;5.17;4.50;;;5.10;99.90;;;;;;5054151;28;20203;-75
2023/01/04 03:55:26;;;;;;;7.17;5.20;;;5.10;99.90;;;;;;5047304;28;20304;-72
2023/01/04 03:57:52;;;;;;;8.20;5.40;;;5.10;99.90;;;;;;5040199;28;20299;-72
2023/01/04 04:00:19;;;;;;;7.60;4.57;;;5.10;99.90;;;;;;5046397;28;20217;-75
2023/01/04 04:02:46;;;;;;;8.70;5.40;;;5.10;99.90;;;;;;5061331;28;20178;-74
2023/01/04 04:10:48;;;;;;;8.57;4.93;;;5.10;99.90;;;;;;5042275;28;20217;-71
2023/01/04 04:13:13;;;;;;;7.60;4.60;;;5.00;99.90;;;;;;5047843;28;20689;-73
2023/01/04 04:15:39;;;;;;;9.80;5.47;;;5.10;99.90;;;;;;5048122;28;20690;-73
2023/01/04 04:18:05;;;;;;;7.00;5.07;;;5.10;99.90;;;;;;5041177;28;20183;-72
2023/01/04 04:20:31;;;;;;;6.30;4.43;;;5.10;99.90;;;;;;5041018;28;20201;-72
2023/01/04 04:22:56;;;;;;;8.13;4.67;;;5.10;99.90;;;;;;5063895;28;20285;-73
2023/01/04 04:25:22;;;;;;;10.13;5.10;;;5.10;99.90;;;;;;5046834;28;20300;-75
2023/01/04 04:27:47;;;;;;;8.63;5.07;;;5.10;99.90;;;;;;5045309;28;20260;-73
2023/01/04 04:30:13;;;;;;;6.90;4.60;;;5.10;99.90;;;;;;5046309;28;20186;-73
2023/01/04 04:32:39;;;;;;;8.20;4.50;;;5.10;99.90;;;;;;5045332;28;20266;-72
2023/01/04 04:35:05;;;;;;;9.67;4.60;;;5.10;99.90;;;;;;5047099;28;20666;-75
2023/01/04 04:37:31;;;;;;;7.53;5.00;;;5.10;99.90;;;;;;5047131;28;20207;-70
2023/01/04 04:39:57;;;;;;;6.60;4.27;;;5.10;99.90;;;;;;5045356;28;21012;-72
2023/01/04 04:42:23;;;;;;;8.37;4.80;;;5.10;99.90;;;;;;5051195;28;20205;-72
2023/01/04 04:44:48;;;;;;;6.80;4.90;;;5.10;99.90;;;;;;5048366;28;20235;-71
2023/01/04 04:47:14;;;;;;;7.80;5.10;;;5.10;99.90;;;;;;5050874;28;20208;-72
2023/01/04 04:49:40;;;;;;;9.40;4.70;;;5.00;99.90;;;;;;5048704;28;20207;-73
2023/01/04 04:52:05;;;;;;;8.03;4.57;;;5.00;99.90;;;;;;5045002;28;20808;-72
2023/01/04 04:54:31;;;;;;;7.83;5.27;;;5.00;99.90;;;;;;5044910;28;20642;-72
2023/01/04 04:56:57;;;;;;;8.67;5.27;;;5.10;99.90;;;;;;5063077;28;20661;-72
2023/01/04 04:59:22;;;;;;;7.93;5.23;;;5.00;99.90;;;;;;5050019;28;20214;-74
2023/01/04 05:01:48;;;;;;;9.48;6.70;;;5.10;99.90;;;;;;5046295;28;20483;-73
2023/01/04 05:04:15;;;;;;;6.17;4.87;;;5.10;99.90;;;;;;5047401;28;20208;-74
2023/01/04 05:06:51;;;;;;;7.50;4.90;;;5.10;99.90;;;;;;5058586;28;20272;-74
2023/01/04 05:09:17;;;;;;;9.57;5.43;;;5.20;99.90;;;;;;5045407;28;20176;-73
2023/01/04 05:14:27;;;;;;;5.90;4.57;;;5.20;99.90;;;;;;5041206;28;20209;-71
2023/01/04 05:16:52;;;;;;;7.33;4.57;;;5.20;99.90;;;;;;5047231;28;20207;-73
2023/01/04 05:19:18;;;;;;;9.33;5.00;;;5.30;99.90;;;;;;5049351;28;20212;-72
2023/01/04 05:21:44;;;;;;;8.17;4.80;;;5.40;99.90;;;;;;5044313;28;20567;-74
2023/01/04 05:24:11;;;;;;;7.90;5.00;;;5.40;99.90;;;;;;5045400;28;20208;-72
2023/01/04 05:26:37;;;;;;;7.97;4.40;;;5.40;99.90;;;;;;5044066;28;20222;-73
2023/01/04 05:29:03;;;;;;;8.23;4.83;;;5.50;99.90;;;;;;5047825;28;20290;-73
2023/01/04 05:31:28;;;;;;;4.73;4.07;;;5.50;99.90;;;;;;5046727;28;20287;-76
2023/01/04 05:33:54;;;;;;;4.37;3.60;;;5.50;99.90;;;;;;5043906;28;20254;-70
2023/01/04 05:36:20;;;;;;;5.83;3.83;;;5.50;99.90;;;;;;5050279;28;20669;-73
2023/01/04 05:38:45;;;;;;;7.80;4.07;;;5.60;99.90;;;;;;5045582;28;20187;-73
2023/01/04 05:43:55;;;;;;;7.03;4.53;;;5.60;99.90;;;;;;5040065;28;20218;-76
2023/01/04 05:46:21;;;;;;;6.93;4.10;;;5.60;99.90;;;;;;5042691;28;20523;-73
2023/01/04 05:48:46;;;;;;;6.70;4.23;;;5.60;99.90;;;;;;5040161;28;20200;-75
2023/01/04 05:51:12;;;;;;;6.80;4.17;;;5.60;99.90;;;;;;5038214;28;20716;-70
2023/01/04 05:53:38;;;;;;;8.27;4.40;;;5.60;99.90;;;;;;5045814;28;20172;-75
2023/01/04 05:56:04;;;;;;;9.50;4.53;;;5.60;99.90;;;;;;5039080;28;20724;-71
2023/01/04 05:58:29;;;;;;;6.23;3.90;;;5.70;99.90;;;;;;5042883;28;20210;-73
2023/01/04 06:00:55;;;;;;;11.60;4.33;;;5.70;99.90;;;;;;5038329;28;20698;-73
2023/01/04 06:03:21;;;;;;;5.80;3.67;;;5.70;99.90;;;;;;5041472;28;20186;-73
2023/01/04 06:05:50;;;;;;;8.23;3.80;;;5.80;99.90;;;;;;5041735;28;20274;-76
2023/01/04 06:08:16;;;;;;;5.93;3.77;;;5.80;99.90;;;;;;5039382;28;20207;-75
2023/01/04 06:10:41;;;;;;;5.67;4.07;;;5.80;99.90;;;;;;5041882;28;20207;-71
2023/01/04 06:13:07;;;;;;;9.50;4.60;;;5.80;99.90;;;;;;5040403;28;20204;-74
2023/01/04 06:15:33;;;;;;;6.30;4.30;;;5.80;99.90;;;;;;5040112;28;20236;-76
2023/01/04 06:17:59;;;;;;;7.93;4.07;;;5.80;99.90;;;;;;5040530;28;20187;-79
2023/01/04 06:20:24;;;;;;;11.07;4.37;;;5.90;99.90;;;;;;5041718;28;20207;-74
2023/01/04 06:22:50;;;;;;;5.63;4.10;;;5.90;99.90;;;;;;5038966;28;20195;-73
2023/01/04 06:25:16;;;;;;;5.93;4.13;;;5.90;99.90;;;;;;5039957;28;20222;-73
2023/01/04 06:27:42;;;;;;;8.57;4.37;;;5.90;99.90;;;;;;5040477;28;20284;-73
2023/01/04 06:30:08;;;;;;;6.87;4.10;;;5.90;99.90;;;;;;5040320;28;20218;-73
2023/01/04 06:32:34;;;;;;;7.10;3.77;;;6.00;99.90;;;;;;5045822;28;20259;-73
2023/01/04 06:34:59;;;;;;;5.77;4.00;;;6.00;99.90;;;;;;5044422;28;20208;-73
2023/01/04 06:37:25;;;;;;;7.90;4.07;;;6.00;99.90;;;;;;5040604;28;20208;-73
2023/01/04 06:39:51;;;;;;;7.30;3.30;;;6.00;99.90;;;;;;5039160;28;20262;-71
2023/01/04 06:45:01;;;;;;;4.83;3.03;;;6.00;99.90;;;;;;5039130;28;20915;-73
2023/01/04 06:47:26;;;;;;;9.03;3.33;;;6.00;99.90;;;;;;5041859;28;20199;-72
2023/01/04 06:49:52;;;;;;;9.50;4.20;;;6.10;99.90;;;;;;5037306;28;20203;-80
2023/01/04 06:52:18;;;;;;;10.63;4.30;;;6.10;99.90;;;;;;5040417;28;20208;-72
2023/01/04 06:54:43;;;;;;;5.07;3.67;;;6.10;99.90;;;;;;5039605;28;20698;-72
2023/01/04 06:57:09;;;;;;;4.47;3.37;;;6.20;99.90;;;;;;5038073;28;20235;-73
2023/01/04 06:59:35;;;;;;;5.40;3.10;;;6.20;99.90;;;;;;5041637;28;20194;-73
2023/01/04 07:02:00;;;;;;;7.33;3.30;;;6.20;99.90;;;;;;5044878;28;20254;-75
2023/01/04 07:04:26;;;;;;;4.57;2.90;;;6.20;99.90;;;;;;5040212;28;20310;-73
2023/01/04 07:06:51;;;;;;;6.73;2.70;;;6.20;99.90;;;;;;5040952;28;20216;-73
2023/01/04 07:09:17;;;;;;;4.93;3.17;;;6.20;99.90;;;;;;5037005;28;20557;-77
2023/01/04 07:11:43;;;;;;;7.33;3.30;;;6.30;99.90;;;;;;5043007;28;20179;-76
2023/01/04 07:14:08;;;;;;;7.03;2.53;;;6.40;99.90;;;;;;5039293;28;20208;-73
2023/01/04 07:16:34;;;;;;;3.93;2.60;;;6.50;99.90;;;;;;5038638;28;20231;-73
2023/01/04 07:19:00;;;;;;;4.33;2.30;;;6.40;99.90;;;;;;5040607;28;20212;-73
2023/01/04 07:21:25;;;;;;;3.03;2.37;;;6.50;99.90;;;;;;5039451;28;20186;-72
2023/01/04 07:23:51;;;;;;;5.73;2.93;;;6.50;99.90;;;;;;5040886;28;20214;-72
2023/01/04 07:26:17;;;;;;;4.97;2.70;;;6.50;99.90;;;;;;5039225;28;20228;-73
2023/01/04 07:31:26;;;;;;;3.77;2.10;;;6.40;99.90;;;;;;5039095;28;20238;-73
2023/01/04 07:33:52;;;;;;;5.70;2.67;;;6.40;99.90;;;;;;5044486;28;20239;-78
2023/01/04 07:36:18;;;;;;;4.43;2.90;;;6.40;99.90;;;;;;5038070;28;20757;-73
2023/01/04 07:38:43;;;;;;;4.00;2.60;;;6.40;99.90;;;;;;5041691;28;20186;-73
2023/01/04 07:41:09;;;;;;;8.07;3.10;;;6.30;99.90;;;;;;5038339;28;20287;-74
2023/01/04 07:43:35;;;;;;;6.23;2.50;;;6.30;99.90;;;;;;5041418;28;20272;-72
2023/01/04 07:46:00;;;;;;;7.20;3.23;;;6.40;99.90;;;;;;5038457;28;20219;-73
2023/01/04 07:48:28;;;;;;;5.77;2.80;;;6.30;99.90;;;;;;5041637;28;20197;-73
2023/01/04 07:50:54;;;;;;;7.30;2.70;;;6.40;99.90;;;;;;5037252;28;20250;-75
2023/01/04 07:53:19;;;;;;;6.27;2.67;;;6.40;99.90;;;;;;5039706;28;20315;-70
2023/01/04 07:55:45;;;;;;;4.27;2.80;;;6.40;99.90;;;;;;5045825;28;20750;-73
2023/01/04 07:58:10;;;;;;;4.30;2.30;;;6.40;99.90;;;;;;5042659;28;20208;-73
2023/01/04 08:00:36;;;;;;;4.90;2.40;;;6.40;99.90;;;;;;5047078;28;20721;-73
2023/01/04 08:03:02;;;;;;;6.00;2.40;;;6.40;99.90;;;;;;5041034;28;20272;-71
2023/01/04 08:05:31;;;;;;;4.00;2.10;;;6.40;99.90;;;;;;5044979;28;20214;-78
2023/01/04 08:07:57;;;;;;;4.13;2.47;;;6.40;99.90;;;;;;5059996;28;20208;-70
2023/01/04 08:10:23;;;;;;;3.87;2.43;;;6.40;99.90;;;;;;5041505;28;20249;-76
2023/01/04 08:12:48;;;;;;;3.93;2.80;;;6.40;99.90;;;;;;5045535;28;20294;-73
2023/01/04 08:15:14;;;;;;;7.00;2.60;;;6.40;99.90;;;;;;5048721;28;20196;-73
2023/01/04 08:17:40;;;;;;;3.37;2.17;;;6.40;99.90;;;;;;5048110;28;20187;-73
2023/01/04 08:20:06;;;;;;;7.53;2.30;;;6.50;99.90;;;;;;5043840;28;20212;-75
2023/01/04 08:22:32;;;;;;;7.87;2.10;;;6.50;99.90;;;;;;5060043;28;20268;-76
2023/01/04 08:24:57;;;;;;;3.43;2.30;;;6.50;99.90;;;;;;5040834;28;20304;-73
2023/01/04 08:27:23;;;;;;;5.00;2.93;;;6.50;99.90;;;;;;5043935;28;20275;-73
2023/01/04 08:29:48;;;;;;;5.70;2.97;;;6.50;99.90;;;;;;5057157;28;20187;-74
2023/01/04 08:32:14;;;;;;;5.77;2.60;;;6.50;99.90;;;;;;5046624;28;20291;-74
2023/01/04 08:34:40;;;;;;;7.50;2.43;;;6.60;99.90;;;;;;5049547;28;20292;-72
2023/01/04 08:37:05;;;;;;;8.00;3.80;;;6.60;99.90;;;;;;5040680;28;20697;-73
2023/01/04 08:39:34;;;;;;;5.70;2.73;;;6.60;99.90;;;;;;5037377;28;20611;-74
2023/01/04 08:42:01;;;;;;;4.47;2.70;;;6.60;99.90;;;;;;5045314;28;20188;-73
2023/01/04 08:44:26;;;;;;;5.13;2.63;;;6.60;99.90;;;;;;5063074;28;20620;-73
2023/01/04 08:46:53;;;;;;;6.77;2.67;;;6.70;99.90;;;;;;5062346;28;20298;-77
2023/01/04 08:49:20;;;;;;;5.60;2.53;;;6.80;99.90;;;;;;5043262;28;20218;-76
2023/01/04 08:51:46;;;;;;;4.33;2.50;;;6.70;99.90;;;;;;5044355;28;20647;-75
2023/01/04 08:54:12;;;;;;;5.00;2.77;;;6.70;99.90;;;;;;5040669;28;21532;-73
2023/01/04 08:56:39;;;;;;;5.47;2.83;;;6.80;99.90;;;;;;5043534;28;20200;-74
2023/01/04 08:59:05;;;;;;;8.03;2.87;;;6.80;99.90;;;;;;5040718;28;20212;-75
2023/01/04 09:01:32;;;;;;;5.87;2.60;;;6.80;99.90;;;;;;5047111;28;20204;-73
2023/01/04 09:03:58;;;;;;;10.03;4.10;;;6.80;99.90;;;;;;5040251;28;20280;-74
2023/01/04 09:06:24;;;;;;;8.00;2.90;;;6.80;99.90;;;;;;5042275;28;20200;-73
2023/01/04 09:08:50;;;;;;;6.70;3.30;;;6.80;99.90;;;;;;5059391;28;20180;-73
2023/01/04 09:11:19;;;;;;;4.67;3.00;;;6.90;99.90;;;;;;5041370;28;20741;-72
2023/01/04 09:13:46;;;;;;;6.10;3.27;;;6.90;99.90;;;;;;5043630;28;20199;-74
2023/01/04 09:16:14;;;;;;;5.17;2.97;;;6.90;99.90;;;;;;5045551;28;20711;-74
2023/01/04 09:18:40;;;;;;;5.37;2.90;;;6.90;99.90;;;;;;5066025;28;20468;-74
2023/01/04 09:21:32;;;;;;;5.87;3.00;;;6.90;99.90;;;;;;5040289;28;20658;-74
2023/01/04 09:23:58;;;;;;;5.33;3.47;;;6.90;99.90;;;;;;5038742;28;20212;-74
2023/01/04 09:26:23;;;;;;;4.83;3.00;;;7.00;99.90;;;;;;5058256;22;20794;-74
2023/01/04 09:28:51;;;;;;;9.53;3.33;;;7.00;99.90;;;;;;5010347;28;20205;-72
2023/01/04 09:31:19;;;;;;;5.53;3.10;;;7.00;99.90;;;;;;5013481;28;20204;-73
2023/01/04 09:33:46;;;;;;;4.90;3.17;;;7.00;99.90;;;;;;5028090;28;20212;-73
2023/01/04 09:36:16;;;;;;;4.43;2.73;;;7.00;99.90;;;;;;5027305;28;20203;-72
2023/01/04 09:38:42;;;;;;;5.67;4.00;;;7.00;99.90;;;;;;5021845;28;20201;-74
2023/01/04 09:41:31;;;;;;;4.20;3.30;;;7.00;99.90;;;;;;5020122;28;20209;-72
2023/01/04 09:44:31;;;;;;;6.60;3.33;;;7.00;99.90;;;;;;5020130;28;20223;-73
2023/01/04 09:46:56;;;;;;;6.20;3.43;;;7.10;99.90;;;;;;5020650;28;20212;-73
2023/01/04 09:49:25;;;;;;;10.53;4.57;;;7.10;99.90;;;;;;5022605;28;20594;-73
2023/01/04 09:52:04;;;;;;;7.63;4.33;;;7.10;99.90;;;;;;5020296;28;20211;-73
2023/01/04 09:54:53;;;;;;;4.37;3.20;;;7.20;99.90;;;;;;5025656;28;20204;-73
2023/01/04 09:57:29;;;;;;;5.47;3.37;;;7.20;99.90;;;;;;5025957;28;20197;-73
2023/01/04 10:00:28;;;;;;;6.10;3.43;;;7.20;99.90;;;;;;5022153;28;20266;-72
2023/01/04 10:03:02;;;;;;;7.27;3.30;;;7.10;99.90;;;;;;5009549;28;20254;-72
2023/01/04 10:05:30;;;;;;;6.33;3.60;;;7.10;99.90;;;;;;5025188;28;20564;-71
2023/01/04 10:07:56;;;;;;;8.10;3.83;;;7.10;99.90;;;;;;5020837;28;20619;-71
2023/01/04 10:11:00;;;;;;;5.50;3.70;;;7.10;99.90;;;;;;5011480;28;20197;-73
2023/01/04 10:13:35;;;;;;;6.00;3.63;;;7.10;99.90;;;;;;5027751;28;20200;-73
2023/01/04 10:16:38;;;;;;;5.77;3.07;;;7.20;99.90;;;;;;5025271;28;20223;-72
2023/01/04 10:19:12;;;;;;;4.40;3.70;;;7.20;99.90;;;;;;5018753;28;20302;-73
2023/01/04 10:21:52;;;;;;;7.00;3.80;;;7.20;99.90;;;;;;5022054;28;20204;-74
2023/01/04 10:24:54;;;;;;;5.13;3.13;;;7.20;99.90;;;;;;5015621;28;20242;-74
2023/01/04 10:27:30;;;;;;;6.20;3.73;;;7.20;99.90;;;;;;5023109;28;20577;-73
2023/01/04 10:30:23;;;;;;;6.97;3.43;;;7.20;99.90;;;;;;5021188;28;20648;-73
2023/01/04 10:33:07;;;;;;;7.57;3.27;;;7.20;99.90;;;;;;5020125;28;20250;-73
2023/01/04 10:35:35;;;;;;;5.83;4.03;;;7.20;99.90;;;;;;5023962;28;20211;-74
2023/01/04 10:38:03;;;;;;;6.57;4.20;;;7.30;99.90;;;;;;5021920;28;20852;-72
2023/01/04 10:40:39;;;;;;;6.37;4.13;;;7.30;99.90;;;;;;5058522;27;20583;-73
2023/01/04 10:43:09;;;;;;;6.70;3.90;;;7.30;99.90;;;;;;5034682;28;20227;-72
2023/01/04 10:46:09;;;;;;;5.67;3.63;;;7.30;99.90;;;;;;5051998;28;20690;-72
2023/01/04 10:48:37;;;;;;;9.30;3.83;;;7.30;99.90;;;;;;5018993;28;20211;-73
2023/01/04 10:51:05;;;;;;;9.00;3.90;;;7.30;99.90;;;;;;5015533;28;20192;-73
2023/01/04 10:54:00;;;;;;;7.80;3.23;;;7.30;99.90;;;;;;5018045;28;20295;-71
2023/01/04 10:56:49;;;;;;;8.03;3.70;;;7.30;99.90;;;;;;5018130;28;20223;-73
2023/01/04 10:59:25;;;;;;;6.70;3.80;;;7.40;99.90;;;;;;5015085;28;20698;-73
2023/01/04 11:02:14;;;;;;;6.03;3.63;;;7.40;99.90;;;;;;5028337;28;20694;-74
2023/01/04 11:04:46;;;;;;;5.23;3.23;;;7.40;99.90;;;;;;5024650;28;20219;-73
2023/01/04 11:07:14;;;;;;;6.60;3.50;;;7.40;99.90;;;;;;5015172;28;20205;-73
2023/01/04 11:10:09;;;;;;;4.53;3.27;;;7.40;99.90;;;;;;5015322;28;20291;-73
2023/01/04 11:12:35;;;;;;;4.20;3.30;;;7.40;99.90;;;;;;5011458;28;20280;-73
2023/01/04 11:15:00;;;;;;;7.30;3.30;;;7.50;99.90;;;;;;5016338;28;20260;-73
2023/01/04 11:17:27;;;;;;;5.63;3.33;;;7.50;99.90;;;;;;4999754;28;20243;-73
2023/01/04 11:19:53;;;;;;;5.43;2.73;;;7.50;99.90;;;;;;4991856;28;20225;-72
2023/01/04 11:22:56;;;;;;;5.30;3.53;;;7.60;99.90;;;;;;4997424;28;20217;-72
2023/01/04 11:25:22;;;;;;;5.63;3.10;;;7.60;99.90;;;;;;4999526;28;20205;-73
2023/01/04 11:28:05;;;;;;;8.03;3.20;;;7.60;99.90;;;;;;5017796;28;20738;-72
2023/01/04 11:30:44;;;;;;;4.33;2.83;;;7.70;99.90;;;;;;5014834;28;20591;-73
2023/01/04 11:33:17;;;;;;;5.03;3.30;;;7.70;99.90;;;;;;4995115;28;20205;-73
2023/01/04 11:35:53;;;;;;;5.03;2.80;;;7.70;99.90;;;;;;4997919;28;20181;-71
2023/01/04 11:38:27;;;;;;;3.83;2.70;;;7.80;99.90;;;;;;4998254;28;20208;-73
2023/01/04 11:41:00;;;;;;;4.37;3.33;;;7.80;99.90;;;;;;4994379;28;20217;-72
2023/01/04 11:43:29;;;;;;;7.30;3.20;;;7.80;99.90;;;;;;4997544;28;20216;-73
2023/01/04 11:46:23;;;;;;;6.27;3.03;;;7.80;99.90;;;;;;4994876;28;20216;-72
2023/01/04 11:48:49;;;;;;;3.93;2.97;;;7.80;99.90;;;;;;5010949;28;20726;-73
2023/01/04 11:51:30;;;;;;;4.87;2.90;;;7.80;99.90;;;;;;5000905;28;20182;-72
2023/01/04 11:54:02;;;;;;;4.23;3.03;;;7.80;99.90;;;;;;4989839;28;20533;-72
2023/01/04 11:56:29;;;;;;;6.03;3.13;;;7.80;99.90;;;;;;5003656;28;20220;-72
2023/01/04 11:59:01;;;;;;;5.40;2.50;;;7.90;99.90;;;;;;4986322;28;20226;-73
2023/01/04 12:01:27;;;;;;;4.40;2.37;;;7.90;99.90;;;;;;4983462;28;20242;-72
2023/01/04 12:03:53;;;;;;;3.90;2.80;;;7.90;99.90;;;;;;4982357;28;20237;-70
2023/01/04 12:06:48;;;;;;;4.43;2.80;;;7.90;99.90;;;;;;4981863;28;20236;-72
2023/01/04 12:09:16;;;;;;;6.20;2.77;;;7.90;99.90;;;;;;4980798;28;20210;-71
2023/01/04 12:11:49;;;;;;;5.07;2.80;;;8.00;99.90;;;;;;4983871;28;20684;-73
2023/01/04 12:14:26;;;;;;;6.20;2.60;;;8.00;99.90;;;;;;4981654;28;20230;-72
2023/01/04 12:17:06;;;;;;;4.67;2.73;;;8.00;99.90;;;;;;4982665;28;20726;-70
2023/01/04 12:19:34;;;;;;;8.27;5.73;;;8.00;99.90;;;;;;4979575;28;20220;-73
2023/01/04 12:22:01;;;;;;;6.27;3.20;;;8.10;99.90;;;;;;4982911;28;20233;-73
2023/01/04 12:24:33;;;;;;;5.17;2.80;;;8.00;99.90;;;;;;4985030;28;20406;-72
2023/01/04 12:27:00;;;;;;;6.23;3.40;;;8.00;99.90;;;;;;4982612;28;20280;-72
2023/01/04 12:29:55;;;;;;;4.93;2.80;;;8.00;99.90;;;;;;4986507;28;20222;-70
2023/01/04 12:32:21;;;;;;;6.50;3.00;;;8.10;99.90;;;;;;4975405;28;20213;-72
2023/01/04 12:34:47;;;;;;;6.80;3.10;;;8.10;99.90;;;;;;4976790;28;20626;-73
2023/01/04 12:37:48;;;;;;;4.73;3.30;;;8.10;99.90;;;;;;4981890;28;20214;-71
2023/01/04 12:40:47;;;;;;;7.20;2.90;;;8.20;99.90;;;;;;4985769;28;20218;-70
2023/01/04 12:43:16;;;;;;;4.97;2.50;;;8.20;99.90;;;;;;4980588;28;20308;-70
2023/01/04 12:45:43;;;;;;;3.50;2.60;;;8.20;99.90;;;;;;4982761;28;20268;-72
2023/01/04 12:51:24;;;;;;;3.90;2.40;;;8.20;99.90;;;;;;4981907;28;20186;-72
2023/01/04 12:53:56;;;;;;;3.57;3.00;;;8.20;99.90;;;;;;4981631;28;20561;-73
2023/01/04 12:56:22;;;;;;;3.50;2.83;;;8.20;99.90;;;;;;4982865;28;20214;-74
2023/01/04 12:59:09;;;;;;;3.30;2.87;;;8.20;99.90;;;;;;4981804;28;20214;-72
2023/01/04 13:01:35;;;;;;;5.47;3.47;;;8.10;99.90;;;;;;4982971;28;20213;-72
2023/01/04 13:04:22;;;;;;;6.17;3.27;;;8.10;99.90;;;;;;4980479;28;20272;-74
2023/01/04 13:06:48;;;;;;;6.77;3.80;;;8.10;99.90;;;;;;4986063;28;20675;-74
2023/01/04 13:09:19;;;;;;;5.43;3.97;;;8.10;99.90;;;;;;4999058;28;20711;-72
2023/01/04 13:11:54;;;;;;;5.47;3.47;;;8.10;99.90;;;;;;4999040;28;20173;-73
2023/01/04 13:14:31;;;;;;;6.40;4.63;;;8.10;99.90;;;;;;4982746;28;20233;-74
2023/01/04 13:17:07;;;;;;;6.03;3.43;;;8.10;99.90;;;;;;4981543;28;20221;-73
2023/01/04 13:19:36;;;;;;;8.57;4.33;;;8.10;99.90;;;;;;4982226;28;20276;-74
2023/01/04 13:22:14;;;;;;;4.87;3.13;;;8.20;99.90;;;;;;4980161;28;20301;-72
2023/01/04 13:24:42;;;;;;;3.97;2.70;;;8.20;99.90;;;;;;5013439;28;20233;-74
2023/01/04 13:27:17;;;;;;;4.83;3.23;;;8.20;99.90;;;;;;4995729;28;20205;-72
2023/01/04 13:29:44;;;;;;;5.50;3.30;;;8.20;99.90;;;;;;4980914;28;20201;-71
2023/01/04 13:32:11;;;;;;;3.43;2.93;;;8.20;99.90;;;;;;4981822;28;20821;-71
2023/01/04 13:35:00;;;;;;;6.23;4.70;;;8.20;99.90;;;;;;4980904;28;20581;-71
2023/01/04 13:37:36;;;;;;;5.57;3.77;;;8.20;99.90;;;;;;4981433;28;20217;-73
2023/01/04 13:40:24;;;;;;;5.77;3.90;;;8.20;99.90;;;;;;4976927;28;20320;-73
2023/01/04 13:43:13;;;;;;;8.83;3.63;;;8.20;99.90;;;;;;4982737;28;20245;-72
2023/01/04 13:46:02;;;;;;;4.93;3.53;;;8.30;99.90;;;;;;4979290;28;20222;-73
2023/01/04 13:48:34;;;;;;;3.90;2.87;;;8.30;99.90;;;;;;4984166;28;20233;-73
2023/01/04 13:51:01;;;;;;;4.90;3.20;;;8.30;99.90;;;;;;5029358;28;20289;-73
2023/01/04 13:53:29;;;;;;;4.03;3.00;;;8.30;99.90;;;;;;4980667;28;20418;-73
2023/01/04 13:56:00;;;;;;;4.30;3.10;;;8.40;99.90;;;;;;4981724;28;20214;-72
2023/01/04 13:58:30;;;;;;;3.70;2.90;;;8.40;99.90;;;;;;4982978;28;20209;-73
2023/01/04 14:01:16;;;;;;;5.13;3.07;;;8.30;99.90;;;;;;4982861;28;20206;-73
2023/01/04 14:03:47;;;;;;;3.97;2.93;;;8.40;99.90;;;;;;4980848;28;20209;-74
2023/01/04 14:06:14;;;;;;;2.97;2.47;;;8.40;99.90;;;;;;4997862;28;20556;-72
2023/01/04 14:09:01;;;;;;;3.73;2.67;;;8.40;99.90;;;;;;4981213;28;20177;-73
2023/01/04 14:14:25;;;;;;;5.23;2.70;;;8.50;99.90;;;;;;4983290;28;20722;-73
2023/01/04 14:17:07;;;;;;;3.20;2.53;;;8.50;99.90;;;;;;4981788;28;20225;-73